sensor_id;sensor_type;location;lat;lon;timestamp;pressure;altitude;pressure_sealevel;temperature;humidity
67738;BME280;54534;43.612;1.572;2023-02-26T00:01:01;97987.06;;;18.20;44.56
67738;BME280;54534;43.612;1.572;2023-02-26T00:03:26;97988.84;;;18.20;44.42
67738;BME280;54534;43.612;1.572;2023-02-26T00:05:52;97984.50;;;18.19;44.67
67738;BME280;54534;43.612;1.572;2023-02-26T00:08:17;97988.16;;;18.18;44.65
67738;BME280;54534;43.612;1.572;2023-02-26T00:10:43;97981.16;;;18.17;44.58
67738;BME280;54534;43.612;1.572;2023-02-26T00:13:11;97979.47;;;18.16;44.33
67738;BME280;54534;43.612;1.572;2023-02-26T00:15:37;97975.28;;;18.13;44.49
67738;BME280;54534;43.612;1.572;2023-02-26T00:18:05;97979.81;;;18.12;44.48
67738;BME280;54534;43.612;1.572;2023-02-26T00:20:32;97975.47;;;18.11;44.60
67738;BME280;54534;43.612;1.572;2023-02-26T00:22:58;97976.44;;;18.10;44.70
67738;BME280;54534;43.612;1.572;2023-02-26T00:25:24;97978.28;;;18.10;44.49
67738;BME280;54534;43.612;1.572;2023-02-26T00:27:50;97972.25;;;18.08;44.25
67738;BME280;54534;43.612;1.572;2023-02-26T00:30:16;97979.41;;;18.07;44.33
67738;BME280;54534;43.612;1.572;2023-02-26T00:32:42;97979.56;;;18.06;44.12
67738;BME280;54534;43.612;1.572;2023-02-26T00:35:11;97979.56;;;18.06;44.59
67738;BME280;54534;43.612;1.572;2023-02-26T00:42:42;97980.84;;;18.01;44.04
67738;BME280;54534;43.612;1.572;2023-02-26T00:45:09;97980.00;;;18.01;44.48
67738;BME280;54534;43.612;1.572;2023-02-26T00:47:52;97982.00;;;17.99;44.32
67738;BME280;54534;43.612;1.572;2023-02-26T00:50:24;97982.97;;;17.98;44.06
67738;BME280;54534;43.612;1.572;2023-02-26T00:55:21;97981.28;;;17.97;44.03
67738;BME280;54534;43.612;1.572;2023-02-26T00:57:47;97989.59;;;17.94;44.13
67738;BME280;54534;43.612;1.572;2023-02-26T01:00:13;97981.59;;;17.94;43.84
67738;BME280;54534;43.612;1.572;2023-02-26T01:02:39;97992.25;;;17.94;44.20
67738;BME280;54534;43.612;1.572;2023-02-26T01:05:06;97987.06;;;17.92;43.99
67738;BME280;54534;43.612;1.572;2023-02-26T01:10:12;97988.19;;;17.89;43.80
67738;BME280;54534;43.612;1.572;2023-02-26T01:12:38;97992.66;;;17.89;43.81
67738;BME280;54534;43.612;1.572;2023-02-26T01:15:05;97987.50;;;17.87;43.77
67738;BME280;54534;43.612;1.572;2023-02-26T01:17:43;97986.66;;;17.87;43.89
67738;BME280;54534;43.612;1.572;2023-02-26T01:20:15;97978.84;;;17.85;43.91
67738;BME280;54534;43.612;1.572;2023-02-26T01:25:38;97981.63;;;17.84;43.92
67738;BME280;54534;43.612;1.572;2023-02-26T01:28:05;97985.31;;;17.83;44.07
67738;BME280;54534;43.612;1.572;2023-02-26T01:30:31;97977.44;;;17.81;43.76
67738;BME280;54534;43.612;1.572;2023-02-26T01:33:01;97977.44;;;17.81;44.07
67738;BME280;54534;43.612;1.572;2023-02-26T01:35:47;97977.63;;;17.79;44.02
67738;BME280;54534;43.612;1.572;2023-02-26T01:38:21;97980.28;;;17.79;44.01
67738;BME280;54534;43.612;1.572;2023-02-26T01:46:27;97978.06;;;17.75;43.66
67738;BME280;54534;43.612;1.572;2023-02-26T01:48:57;97966.59;;;17.74;43.66
67738;BME280;54534;43.612;1.572;2023-02-26T01:54:15;97974.72;;;17.73;43.99
67738;BME280;54534;43.612;1.572;2023-02-26T01:56:41;97968.69;;;17.71;44.02
67738;BME280;54534;43.612;1.572;2023-02-26T01:59:10;97964.22;;;17.71;43.56
67738;BME280;54534;43.612;1.572;2023-02-26T02:01:39;97960.72;;;17.71;43.80
67738;BME280;54534;43.612;1.572;2023-02-26T02:04:09;97961.72;;;17.70;43.70
67738;BME280;54534;43.612;1.572;2023-02-26T02:06:35;97967.19;;;17.68;43.63
67738;BME280;54534;43.612;1.572;2023-02-26T02:09:03;97962.69;;;17.68;43.78
67738;BME280;54534;43.612;1.572;2023-02-26T02:11:29;97965.53;;;17.67;43.42
67738;BME280;54534;43.612;1.572;2023-02-26T02:33:32;97968.91;;;17.59;43.72
67738;BME280;54534;43.612;1.572;2023-02-26T02:36:04;97963.59;;;17.59;43.91
67738;BME280;54534;43.612;1.572;2023-02-26T02:39:06;97965.53;;;17.57;43.26
67738;BME280;54534;43.612;1.572;2023-02-26T02:41:39;97966.56;;;17.56;43.48
67738;BME280;54534;43.612;1.572;2023-02-26T02:44:11;97956.91;;;17.55;43.58
67738;BME280;54534;43.612;1.572;2023-02-26T02:46:39;97955.25;;;17.54;43.49
67738;BME280;54534;43.612;1.572;2023-02-26T02:49:10;97955.25;;;17.54;43.42
67738;BME280;54534;43.612;1.572;2023-02-26T02:51:41;97960.56;;;17.54;43.50
67738;BME280;54534;43.612;1.572;2023-02-26T02:54:14;97953.56;;;17.53;43.42
67738;BME280;54534;43.612;1.572;2023-02-26T02:56:48;97953.56;;;17.53;43.32
67738;BME280;54534;43.612;1.572;2023-02-26T02:59:32;97954.53;;;17.52;43.32
67738;BME280;54534;43.612;1.572;2023-02-26T03:02:23;97953.00;;;17.49;43.61
67738;BME280;54534;43.612;1.572;2023-02-26T03:04:51;97954.84;;;17.49;43.40
67738;BME280;54534;43.612;1.572;2023-02-26T03:07:16;97956.66;;;17.48;43.30
67738;BME280;54534;43.612;1.572;2023-02-26T03:09:42;97961.13;;;17.48;43.34
67738;BME280;54534;43.612;1.572;2023-02-26T03:12:08;97961.97;;;17.48;43.59
67738;BME280;54534;43.612;1.572;2023-02-26T03:14:34;97950.66;;;17.46;43.41
67738;BME280;54534;43.612;1.572;2023-02-26T03:17:26;97955.97;;;17.46;43.23
67738;BME280;54534;43.612;1.572;2023-02-26T03:20:12;97957.78;;;17.45;43.11
67738;BME280;54534;43.612;1.572;2023-02-26T03:22:47;97961.41;;;17.44;43.55
67738;BME280;54534;43.612;1.572;2023-02-26T03:25:20;97957.09;;;17.43;43.32
67738;BME280;54534;43.612;1.572;2023-02-26T03:36:07;97963.56;;;17.41;43.24
67738;BME280;54534;43.612;1.572;2023-02-26T03:38:52;97957.53;;;17.39;43.32
67738;BME280;54534;43.612;1.572;2023-02-26T03:41:26;97961.03;;;17.39;43.22
67738;BME280;54534;43.612;1.572;2023-02-26T03:44:11;97962.84;;;17.39;43.18
67738;BME280;54534;43.612;1.572;2023-02-26T03:46:43;97962.03;;;17.38;43.30
67738;BME280;54534;43.612;1.572;2023-02-26T03:49:18;97960.34;;;17.37;43.33
67738;BME280;54534;43.612;1.572;2023-02-26T03:51:45;97968.31;;;17.37;42.85
67738;BME280;54534;43.612;1.572;2023-02-26T03:54:25;97966.63;;;17.36;43.05
67738;BME280;54534;43.612;1.572;2023-02-26T03:56:52;97971.94;;;17.36;43.25
67738;BME280;54534;43.612;1.572;2023-02-26T03:59:18;97973.78;;;17.36;43.26
67738;BME280;54534;43.612;1.572;2023-02-26T04:04:17;97979.22;;;17.34;43.29
67738;BME280;54534;43.612;1.572;2023-02-26T04:06:43;97980.06;;;17.34;42.91
67738;BME280;54534;43.612;1.572;2023-02-26T04:09:10;97989.16;;;17.32;43.15
67738;BME280;54534;43.612;1.572;2023-02-26T04:11:37;97984.69;;;17.32;42.93
67738;BME280;54534;43.612;1.572;2023-02-26T04:14:03;97985.53;;;17.33;43.31
67738;BME280;54534;43.612;1.572;2023-02-26T04:16:29;97985.66;;;17.31;43.21
67738;BME280;54534;43.612;1.572;2023-02-26T04:18:54;97985.81;;;17.30;43.20
67738;BME280;54534;43.612;1.572;2023-02-26T04:21:21;97987.47;;;17.31;42.97
67738;BME280;54534;43.612;1.572;2023-02-26T04:23:47;97976.03;;;17.30;42.76
67738;BME280;54534;43.612;1.572;2023-02-26T04:26:12;97985.81;;;17.30;43.12
67738;BME280;54534;43.612;1.572;2023-02-26T04:28:39;97986.78;;;17.29;43.12
67738;BME280;54534;43.612;1.572;2023-02-26T04:31:04;97992.94;;;17.29;42.99
67738;BME280;54534;43.612;1.572;2023-02-26T04:33:31;97987.78;;;17.28;42.99
67738;BME280;54534;43.612;1.572;2023-02-26T04:35:57;97993.09;;;17.28;42.96
67738;BME280;54534;43.612;1.572;2023-02-26T04:38:23;97996.75;;;17.27;42.86
67738;BME280;54534;43.612;1.572;2023-02-26T04:40:49;97990.59;;;17.26;43.14
67738;BME280;54534;43.612;1.572;2023-02-26T04:43:15;97996.91;;;17.25;43.14
67738;BME280;54534;43.612;1.572;2023-02-26T04:45:41;97998.72;;;17.25;43.05
67738;BME280;54534;43.612;1.572;2023-02-26T04:48:06;97996.91;;;17.25;43.03
67738;BME280;54534;43.612;1.572;2023-02-26T04:50:31;97996.06;;;17.25;42.88
67738;BME280;54534;43.612;1.572;2023-02-26T04:52:57;98003.19;;;17.24;42.88
67738;BME280;54534;43.612;1.572;2023-02-26T04:55:22;97998.00;;;17.22;42.91
67738;BME280;54534;43.612;1.572;2023-02-26T04:57:48;98000.66;;;17.22;43.03
67738;BME280;54534;43.612;1.572;2023-02-26T05:00:13;97999.00;;;17.21;43.03
67738;BME280;54534;43.612;1.572;2023-02-26T05:02:40;98006.97;;;17.21;42.64
67738;BME280;54534;43.612;1.572;2023-02-26T05:05:05;97999.97;;;17.20;42.74
67738;BME280;54534;43.612;1.572;2023-02-26T05:07:31;97995.66;;;17.19;42.86
67738;BME280;54534;43.612;1.572;2023-02-26T05:09:56;97991.16;;;17.20;42.70
67738;BME280;54534;43.612;1.572;2023-02-26T05:12:22;97994.81;;;17.19;42.85
67738;BME280;54534;43.612;1.572;2023-02-26T05:14:47;97991.31;;;17.18;42.91
67738;BME280;54534;43.612;1.572;2023-02-26T05:17:13;97988.66;;;17.18;42.69
67738;BME280;54534;43.612;1.572;2023-02-26T05:19:38;97989.63;;;17.17;42.91
67738;BME280;54534;43.612;1.572;2023-02-26T05:22:04;97989.63;;;17.17;42.70
67738;BME280;54534;43.612;1.572;2023-02-26T05:24:29;97995.94;;;17.16;42.94
67738;BME280;54534;43.612;1.572;2023-02-26T05:26:55;97995.06;;;17.16;42.80
67738;BME280;54534;43.612;1.572;2023-02-26T05:29:20;97994.22;;;17.15;42.70
67738;BME280;54534;43.612;1.572;2023-02-26T05:31:46;97986.25;;;17.15;42.88
67738;BME280;54534;43.612;1.572;2023-02-26T05:34:11;97989.91;;;17.14;42.61
67738;BME280;54534;43.612;1.572;2023-02-26T05:36:36;97982.91;;;17.13;42.63
67738;BME280;54534;43.612;1.572;2023-02-26T05:39:02;97992.56;;;17.14;42.81
67738;BME280;54534;43.612;1.572;2023-02-26T05:41:27;97989.19;;;17.12;42.86
67738;BME280;54534;43.612;1.572;2023-02-26T05:43:53;97989.19;;;17.12;42.78
67738;BME280;54534;43.612;1.572;2023-02-26T05:46:18;97998.16;;;17.11;42.66
67738;BME280;54534;43.612;1.572;2023-02-26T05:48:43;97992.84;;;17.11;42.64
67738;BME280;54534;43.612;1.572;2023-02-26T05:51:09;98000.13;;;17.09;42.79
67738;BME280;54534;43.612;1.572;2023-02-26T05:53:34;98009.75;;;17.10;42.88
67738;BME280;54534;43.612;1.572;2023-02-26T05:56:00;98007.09;;;17.10;42.64
67738;BME280;54534;43.612;1.572;2023-02-26T05:58:25;98006.25;;;17.09;42.72
67738;BME280;54534;43.612;1.572;2023-02-26T06:00:51;98009.06;;;17.08;42.56
67738;BME280;54534;43.612;1.572;2023-02-26T06:03:16;98011.72;;;17.08;42.75
67738;BME280;54534;43.612;1.572;2023-02-26T06:05:42;98020.66;;;17.07;42.44
67738;BME280;54534;43.612;1.572;2023-02-26T06:08:07;98014.53;;;17.06;42.53
67738;BME280;54534;43.612;1.572;2023-02-26T06:10:33;98022.63;;;17.05;42.69
67738;BME280;54534;43.612;1.572;2023-02-26T06:12:58;98031.28;;;17.07;42.71
67738;BME280;54534;43.612;1.572;2023-02-26T06:15:24;98028.63;;;17.07;42.58
67738;BME280;54534;43.612;1.572;2023-02-26T06:17:49;98033.94;;;17.07;42.67
67738;BME280;54534;43.612;1.572;2023-02-26T06:20:15;98038.44;;;17.06;42.64
67738;BME280;54534;43.612;1.572;2023-02-26T06:22:40;98045.38;;;17.07;42.60
67738;BME280;54534;43.612;1.572;2023-02-26T06:25:06;98048.88;;;17.08;42.37
67738;BME280;54534;43.612;1.572;2023-02-26T06:27:31;98042.63;;;17.09;42.43
67738;BME280;54534;43.612;1.572;2023-02-26T06:29:57;98040.66;;;17.11;42.54
67738;BME280;54534;43.612;1.572;2023-02-26T06:32:22;98042.47;;;17.10;42.37
67738;BME280;54534;43.612;1.572;2023-02-26T06:34:48;98048.47;;;17.12;42.55
67738;BME280;54534;43.612;1.572;2023-02-26T06:37:13;98045.69;;;17.14;42.43
67738;BME280;54534;43.612;1.572;2023-02-26T06:39:38;98052.66;;;17.15;42.31
67738;BME280;54534;43.612;1.572;2023-02-26T06:42:04;98043.75;;;17.16;42.33
67738;BME280;54534;43.612;1.572;2023-02-26T06:44:29;98057.72;;;17.18;42.58
67738;BME280;54534;43.612;1.572;2023-02-26T06:46:55;98054.09;;;17.19;42.54
67738;BME280;54534;43.612;1.572;2023-02-26T06:49:20;98060.22;;;17.20;42.14
67738;BME280;54534;43.612;1.572;2023-02-26T06:51:46;98065.41;;;17.21;42.34
67738;BME280;54534;43.612;1.572;2023-02-26T06:54:11;98061.75;;;17.22;42.41
67738;BME280;54534;43.612;1.572;2023-02-26T06:56:36;98067.78;;;17.25;42.46
67738;BME280;54534;43.612;1.572;2023-02-26T06:59:02;98074.75;;;17.26;42.31
67738;BME280;54534;43.612;1.572;2023-02-26T07:01:27;98077.28;;;17.27;42.27
67738;BME280;54534;43.612;1.572;2023-02-26T07:03:53;98084.25;;;17.28;42.32
67738;BME280;54534;43.612;1.572;2023-02-26T07:06:18;98090.41;;;17.29;42.16
67738;BME280;54534;43.612;1.572;2023-02-26T07:08:43;98094.75;;;17.30;42.11
67738;BME280;54534;43.612;1.572;2023-02-26T07:11:09;98093.75;;;17.31;41.93
67738;BME280;54534;43.612;1.572;2023-02-26T07:13:36;98093.63;;;17.32;42.52
67738;BME280;54534;43.612;1.572;2023-02-26T07:16:03;98097.94;;;17.33;42.52
67738;BME280;54534;43.612;1.572;2023-02-26T07:18:32;98100.47;;;17.35;42.11
67738;BME280;54534;43.612;1.572;2023-02-26T07:20:58;98110.94;;;17.37;42.04
67738;BME280;54534;43.612;1.572;2023-02-26T07:23:23;98110.81;;;17.38;42.08
67738;BME280;54534;43.612;1.572;2023-02-26T07:25:48;98120.44;;;17.39;42.32
67738;BME280;54534;43.612;1.572;2023-02-26T07:28:14;98124.78;;;17.40;42.43
67738;BME280;54534;43.612;1.572;2023-02-26T07:30:39;98120.44;;;17.39;42.44
67738;BME280;54534;43.612;1.572;2023-02-26T07:33:07;98114.16;;;17.40;42.34
67738;BME280;54534;43.612;1.572;2023-02-26T07:35:32;98117.50;;;17.42;42.61
67738;BME280;54534;43.612;1.572;2023-02-26T07:37:58;98125.47;;;17.42;42.37
67738;BME280;54534;43.612;1.572;2023-02-26T07:40:23;98132.47;;;17.43;42.14
67738;BME280;54534;43.612;1.572;2023-02-26T07:42:49;98126.16;;;17.44;42.67
67738;BME280;54534;43.612;1.572;2023-02-26T07:45:14;98131.47;;;17.44;42.31
67738;BME280;54534;43.612;1.572;2023-02-26T07:47:43;98133.19;;;17.45;42.75
67738;BME280;54534;43.612;1.572;2023-02-26T07:50:09;98143.66;;;17.47;42.79
67738;BME280;54534;43.612;1.572;2023-02-26T07:52:35;98140.16;;;17.47;42.42
67738;BME280;54534;43.612;1.572;2023-02-26T07:55:00;98132.91;;;17.49;42.42
67738;BME280;54534;43.612;1.572;2023-02-26T07:57:26;98139.19;;;17.48;42.90
67738;BME280;54534;43.612;1.572;2023-02-26T07:59:51;98143.53;;;17.49;42.52
67738;BME280;54534;43.612;1.572;2023-02-26T08:02:16;98149.66;;;17.49;42.79
67738;BME280;54534;43.612;1.572;2023-02-26T08:04:43;98155.81;;;17.50;42.71
67738;BME280;54534;43.612;1.572;2023-02-26T08:07:08;98157.63;;;17.49;42.63
67738;BME280;54534;43.612;1.572;2023-02-26T08:09:34;98162.81;;;17.51;42.68
67738;BME280;54534;43.612;1.572;2023-02-26T08:12:00;98163.66;;;17.51;42.65
67738;BME280;54534;43.612;1.572;2023-02-26T08:14:25;98159.16;;;17.52;42.30
67738;BME280;54534;43.612;1.572;2023-02-26T08:16:51;98157.50;;;17.51;42.70
67738;BME280;54534;43.612;1.572;2023-02-26T08:19:17;98164.63;;;17.50;42.42
67738;BME280;54534;43.612;1.572;2023-02-26T08:21:43;98167.28;;;17.50;42.31
67738;BME280;54534;43.612;1.572;2023-02-26T08:24:10;98165.47;;;17.51;42.38
67738;BME280;54534;43.612;1.572;2023-02-26T08:26:36;98161.97;;;17.50;42.47
67738;BME280;54534;43.612;1.572;2023-02-26T08:29:02;98165.47;;;17.51;42.49
67738;BME280;54534;43.612;1.572;2023-02-26T08:31:28;98170.91;;;17.49;42.56
67738;BME280;54534;43.612;1.572;2023-02-26T08:33:53;98171.63;;;17.51;42.34
67738;BME280;54534;43.612;1.572;2023-02-26T08:36:19;98170.63;;;17.52;42.46
67738;BME280;54534;43.612;1.572;2023-02-26T08:38:46;98166.44;;;17.50;42.59
67738;BME280;54534;43.612;1.572;2023-02-26T08:41:11;98172.31;;;17.53;42.65
67738;BME280;54534;43.612;1.572;2023-02-26T08:43:37;98168.81;;;17.53;43.09
67738;BME280;54534;43.612;1.572;2023-02-26T08:46:02;98173.97;;;17.54;43.05
67738;BME280;54534;43.612;1.572;2023-02-26T08:48:28;98173.16;;;17.54;43.39
67738;BME280;54534;43.612;1.572;2023-02-26T08:50:53;98173.00;;;17.55;43.57
67738;BME280;54534;43.612;1.572;2023-02-26T08:53:19;98173.69;;;17.58;43.50
67738;BME280;54534;43.612;1.572;2023-02-26T08:55:51;98170.91;;;17.59;43.38
67738;BME280;54534;43.612;1.572;2023-02-26T08:58:17;98178.91;;;17.59;43.32
67738;BME280;54534;43.612;1.572;2023-02-26T09:00:43;98184.91;;;17.61;43.37
67738;BME280;54534;43.612;1.572;2023-02-26T09:03:09;98186.59;;;17.62;43.24
67738;BME280;54534;43.612;1.572;2023-02-26T09:05:34;98197.06;;;17.64;42.99
67738;BME280;54534;43.612;1.572;2023-02-26T09:08:00;98184.63;;;17.64;43.05
67738;BME280;54534;43.612;1.572;2023-02-26T09:10:25;98198.75;;;17.65;43.08
67738;BME280;54534;43.612;1.572;2023-02-26T09:12:51;98200.41;;;17.66;43.06
67738;BME280;54534;43.612;1.572;2023-02-26T09:15:16;98210.06;;;17.67;43.25
67738;BME280;54534;43.612;1.572;2023-02-26T09:17:42;98218.91;;;17.67;43.29
67738;BME280;54534;43.612;1.572;2023-02-26T09:20:09;98219.72;;;17.68;43.05
67738;BME280;54534;43.612;1.572;2023-02-26T09:22:35;98216.94;;;17.70;42.88
67738;BME280;54534;43.612;1.572;2023-02-26T09:25:01;98217.91;;;17.68;43.28
67738;BME280;54534;43.612;1.572;2023-02-26T09:27:26;98219.59;;;17.70;43.04
67738;BME280;54534;43.612;1.572;2023-02-26T09:29:52;98220.44;;;17.70;42.96
67738;BME280;54534;43.612;1.572;2023-02-26T09:32:17;98222.25;;;17.70;42.71
67738;BME280;54534;43.612;1.572;2023-02-26T09:34:43;98230.22;;;17.70;42.90
67738;BME280;54534;43.612;1.572;2023-02-26T09:37:08;98227.56;;;17.70;42.67
67738;BME280;54534;43.612;1.572;2023-02-26T09:39:35;98236.38;;;17.70;42.74
67738;BME280;54534;43.612;1.572;2023-02-26T09:44:39;98249.69;;;17.70;42.45
67738;BME280;54534;43.612;1.572;2023-02-26T09:52:10;98253.16;;;17.71;42.71
67738;BME280;54534;43.612;1.572;2023-02-26T09:54:43;98253.16;;;17.71;42.75
67738;BME280;54534;43.612;1.572;2023-02-26T09:57:20;98248.81;;;17.70;42.52
67738;BME280;54534;43.612;1.572;2023-02-26T09:59:50;98242.50;;;17.71;42.46
67738;BME280;54534;43.612;1.572;2023-02-26T10:02:37;98254.00;;;17.71;42.54
67738;BME280;54534;43.612;1.572;2023-02-26T10:07:59;98252.34;;;17.70;42.52
67738;BME280;54534;43.612;1.572;2023-02-26T10:12:52;98259.59;;;17.68;42.54
67738;BME280;54534;43.612;1.572;2023-02-26T10:18:07;98252.34;;;17.70;42.00
67738;BME280;54534;43.612;1.572;2023-02-26T10:20:41;98252.47;;;17.68;42.18
67738;BME280;54534;43.612;1.572;2023-02-26T10:23:27;98255.13;;;17.68;41.98
67738;BME280;54534;43.612;1.572;2023-02-26T10:26:06;98248.13;;;17.67;42.16
67738;BME280;54534;43.612;1.572;2023-02-26T10:31:33;98259.75;;;17.66;41.73
67738;BME280;54534;43.612;1.572;2023-02-26T10:39:22;98262.41;;;17.66;41.81
67738;BME280;54534;43.612;1.572;2023-02-26T10:41:51;98263.25;;;17.67;41.70
67738;BME280;54534;43.612;1.572;2023-02-26T10:44:59;98263.25;;;17.67;41.63
67738;BME280;54534;43.612;1.572;2023-02-26T10:47:50;98256.13;;;17.67;41.52
67738;BME280;54534;43.612;1.572;2023-02-26T10:50:19;98257.94;;;17.67;41.58
67738;BME280;54534;43.612;1.572;2023-02-26T10:52:46;98257.09;;;17.66;41.40
67738;BME280;54534;43.612;1.572;2023-02-26T10:57:54;98269.41;;;17.67;41.43
67738;BME280;54534;43.612;1.572;2023-02-26T11:00:21;98253.47;;;17.67;41.66
67738;BME280;54534;43.612;1.572;2023-02-26T11:02:51;98256.94;;;17.68;41.79
67738;BME280;54534;43.612;1.572;2023-02-26T11:05:26;98249.09;;;17.66;41.49
67738;BME280;54534;43.612;1.572;2023-02-26T11:07:59;98267.44;;;17.70;42.14
67738;BME280;54534;43.612;1.572;2023-02-26T11:10:46;98273.72;;;17.68;41.93
67738;BME280;54534;43.612;1.572;2023-02-26T11:13:12;98266.59;;;17.69;41.95
67738;BME280;54534;43.612;1.572;2023-02-26T11:15:37;98274.41;;;17.71;42.24
67738;BME280;54534;43.612;1.572;2023-02-26T11:18:03;98270.78;;;17.72;41.86
67738;BME280;54534;43.612;1.572;2023-02-26T11:20:41;98273.44;;;17.72;41.82
67738;BME280;54534;43.612;1.572;2023-02-26T11:23:12;98267.16;;;17.73;42.03
67738;BME280;54534;43.612;1.572;2023-02-26T11:25:39;98268.13;;;17.72;42.03
67738;BME280;54534;43.612;1.572;2023-02-26T11:28:09;98262.66;;;17.73;41.85
67738;BME280;54534;43.612;1.572;2023-02-26T11:30:43;98258.19;;;17.74;42.20
67738;BME280;54534;43.612;1.572;2023-02-26T11:36:02;98262.53;;;17.75;42.33
67738;BME280;54534;43.612;1.572;2023-02-26T11:38:30;98256.22;;;17.76;42.31
67738;BME280;54534;43.612;1.572;2023-02-26T11:40:57;98258.88;;;17.76;42.14
67738;BME280;54534;43.612;1.572;2023-02-26T11:43:24;98257.91;;;17.77;42.32
67738;BME280;54534;43.612;1.572;2023-02-26T11:45:59;98256.09;;;17.77;42.19
67738;BME280;54534;43.612;1.572;2023-02-26T11:48:32;98255.94;;;17.79;42.19
67738;BME280;54534;43.612;1.572;2023-02-26T11:51:03;98249.78;;;17.78;42.52
67738;BME280;54534;43.612;1.572;2023-02-26T11:53:33;98250.63;;;17.79;42.40
67738;BME280;54534;43.612;1.572;2023-02-26T11:56:08;98256.78;;;17.79;42.11
67738;BME280;54534;43.612;1.572;2023-02-26T11:58:37;98251.47;;;17.79;42.23
67738;BME280;54534;43.612;1.572;2023-02-26T12:01:06;98254.97;;;17.80;42.28
67738;BME280;54534;43.612;1.572;2023-02-26T12:03:36;98257.63;;;17.80;42.13
67738;BME280;54534;43.612;1.572;2023-02-26T12:06:05;98261.94;;;17.81;42.44
67738;BME280;54534;43.612;1.572;2023-02-26T12:08:38;98267.28;;;17.81;42.08
67738;BME280;54534;43.612;1.572;2023-02-26T12:16:28;98245.31;;;17.79;41.94
67738;BME280;54534;43.612;1.572;2023-02-26T12:35:36;98243.94;;;17.75;41.51
67738;BME280;54534;43.612;1.572;2023-02-26T12:38:42;98231.47;;;17.75;41.05
67738;BME280;54534;43.612;1.572;2023-02-26T12:41:20;98220.97;;;17.74;41.37
67738;BME280;54534;43.612;1.572;2023-02-26T12:43:49;98215.66;;;17.74;41.02
67738;BME280;54534;43.612;1.572;2023-02-26T12:49:05;98200.69;;;17.73;40.81
67738;BME280;54534;43.612;1.572;2023-02-26T13:14:34;98187.13;;;16.96;34.98
67738;BME280;54534;43.612;1.572;2023-02-26T13:17:17;98183.44;;;16.77;34.60
67738;BME280;54534;43.612;1.572;2023-02-26T13:19:52;98185.97;;;16.69;34.64
67738;BME280;54534;43.612;1.572;2023-02-26T13:22:29;98169.47;;;16.65;34.02
67738;BME280;54534;43.612;1.572;2023-02-26T13:27:43;98168.63;;;16.65;34.64
67738;BME280;54534;43.612;1.572;2023-02-26T13:30:20;98168.63;;;16.65;34.99
67738;BME280;54534;43.612;1.572;2023-02-26T13:32:48;98165.72;;;16.68;35.21
67738;BME280;54534;43.612;1.572;2023-02-26T13:35:27;98150.47;;;16.70;35.25
67738;BME280;54534;43.612;1.572;2023-02-26T13:37:56;98148.50;;;16.72;35.24
67738;BME280;54534;43.612;1.572;2023-02-26T13:40:50;98147.28;;;16.76;35.48
67738;BME280;54534;43.612;1.572;2023-02-26T13:49:08;98149.81;;;16.88;35.47
67738;BME280;54534;43.612;1.572;2023-02-26T13:51:40;98153.84;;;16.92;35.84
67738;BME280;54534;43.612;1.572;2023-02-26T13:56:53;98148.69;;;17.00;35.88
67738;BME280;54534;43.612;1.572;2023-02-26T13:59:34;98153.59;;;17.05;36.19
67738;BME280;54534;43.612;1.572;2023-02-26T14:02:35;98159.47;;;17.09;36.10
67738;BME280;54534;43.612;1.572;2023-02-26T14:05:08;98165.31;;;17.12;36.18
67738;BME280;54534;43.612;1.572;2023-02-26T14:08:08;98162.38;;;17.16;36.53
67738;BME280;54534;43.612;1.572;2023-02-26T14:10:55;98165.66;;;17.19;36.30
67738;BME280;54534;43.612;1.572;2023-02-26T14:16:34;98176.53;;;17.26;36.57
67738;BME280;54534;43.612;1.572;2023-02-26T14:19:25;98172.75;;;17.29;36.81
67738;BME280;54534;43.612;1.572;2023-02-26T14:21:53;98172.63;;;17.30;36.50
67738;BME280;54534;43.612;1.572;2023-02-26T14:24:31;98175.84;;;17.34;36.65
67738;BME280;54534;43.612;1.572;2023-02-26T14:35:33;98188.28;;;17.43;36.73
67738;BME280;54534;43.612;1.572;2023-02-26T14:38:04;98187.16;;;17.46;37.05
67738;BME280;54534;43.612;1.572;2023-02-26T14:40:42;98167.56;;;17.47;37.26
67738;BME280;54534;43.612;1.572;2023-02-26T14:43:19;98179.72;;;17.50;36.96
67738;BME280;54534;43.612;1.572;2023-02-26T14:45:46;98172.44;;;17.52;37.36
67738;BME280;54534;43.612;1.572;2023-02-26T14:48:16;98184.78;;;17.53;37.01
67738;BME280;54534;43.612;1.572;2023-02-26T14:53:23;98204.75;;;17.57;37.05
67738;BME280;54534;43.612;1.572;2023-02-26T14:56:09;98202.09;;;17.57;37.05
67738;BME280;54534;43.612;1.572;2023-02-26T15:06:49;98213.97;;;17.63;37.48
67738;BME280;54534;43.612;1.572;2023-02-26T15:09:18;98228.13;;;17.63;37.24
67738;BME280;54534;43.612;1.572;2023-02-26T15:11:59;98230.66;;;17.65;37.53
67738;BME280;54534;43.612;1.572;2023-02-26T15:20:36;98230.50;;;17.66;37.72
67738;BME280;54534;43.612;1.572;2023-02-26T15:25:51;98253.56;;;17.66;37.47
67738;BME280;54534;43.612;1.572;2023-02-26T15:28:29;98253.47;;;17.67;37.55
67738;BME280;54534;43.612;1.572;2023-02-26T15:30:55;98234.84;;;17.67;37.20
67738;BME280;54534;43.612;1.572;2023-02-26T15:33:24;98253.47;;;17.67;37.12
67738;BME280;54534;43.612;1.572;2023-02-26T15:35:51;98259.59;;;17.68;37.35
67738;BME280;54534;43.612;1.572;2023-02-26T15:38:18;98260.44;;;17.68;37.33
67738;BME280;54534;43.612;1.572;2023-02-26T15:40:44;98275.53;;;17.68;37.52
67738;BME280;54534;43.612;1.572;2023-02-26T15:43:14;98276.38;;;17.68;37.47
67738;BME280;54534;43.612;1.572;2023-02-26T15:45:43;98278.19;;;17.68;37.57
67738;BME280;54534;43.612;1.572;2023-02-26T15:48:13;98292.34;;;17.68;37.60
67738;BME280;54534;43.612;1.572;2023-02-26T15:50:43;98288.84;;;17.68;37.45
67738;BME280;54534;43.612;1.572;2023-02-26T15:53:16;98294.28;;;17.66;36.89
67738;BME280;54534;43.612;1.572;2023-02-26T15:55:48;98299.63;;;17.66;37.11
67738;BME280;54534;43.612;1.572;2023-02-26T15:58:21;98315.56;;;17.66;37.09
67738;BME280;54534;43.612;1.572;2023-02-26T16:00:53;98304.09;;;17.66;37.23
67738;BME280;54534;43.612;1.572;2023-02-26T16:03:25;98312.22;;;17.64;37.06